Time;durP1;ratioP1;P1;durP2;ratioP2;P2;SDS_P1;SDS_P2;PMS_P1;PMS_P2;Temp;Humidity;BMP_temperature;BMP_pressure;BME280_temperature;BME280_humidity;BME280_pressure;Samples;Min_cycle;Max_cycle;Signal;HPM_P1;HPM_P2
2022/04/19 00:01:20;;;;;;;5.80;2.08;;;18.60;50.00;;;;;;5052983;28;20163;-85
2022/04/19 00:03:48;;;;;;;3.25;2.08;;;18.60;50.00;;;;;;5036340;28;20161;-84
2022/04/19 00:06:16;;;;;;;3.67;1.98;;;18.60;50.00;;;;;;5052008;28;20544;-84
2022/04/19 00:08:45;;;;;;;2.60;2.20;;;18.60;50.00;;;;;;5052022;28;20178;-85
2022/04/19 00:11:13;;;;;;;3.08;2.20;;;18.60;50.10;;;;;;5035639;28;20190;-86
2022/04/19 00:13:40;;;;;;;2.75;1.92;;;18.50;49.80;;;;;;5068909;28;20174;-85
2022/04/19 00:16:10;;;;;;;4.45;1.90;;;18.60;50.20;;;;;;5035296;28;20173;-84
2022/04/19 00:18:38;;;;;;;2.53;1.88;;;18.60;50.10;;;;;;5068637;28;20190;-85
2022/04/19 00:21:05;;;;;;;3.08;1.98;;;18.60;49.90;;;;;;5051816;28;20199;-84
2022/04/19 00:23:33;;;;;;;1.98;1.77;;;18.60;50.30;;;;;;5035168;28;20217;-86
2022/04/19 00:26:00;;;;;;;2.92;1.80;;;18.60;50.00;;;;;;5051815;28;20517;-85
2022/04/19 00:28:27;;;;;;;2.40;1.90;;;18.60;50.10;;;;;;5051762;28;20182;-85
2022/04/19 00:30:53;;;;;;;3.58;2.13;;;18.60;50.20;;;;;;5052364;28;20212;-84
2022/04/19 00:33:19;;;;;;;2.22;1.90;;;18.60;50.40;;;;;;5053856;28;20193;-85
2022/04/19 00:35:44;;;;;;;3.30;2.20;;;18.60;50.10;;;;;;5052323;28;20500;-85
2022/04/19 00:38:10;;;;;;;4.85;2.13;;;18.60;50.30;;;;;;5052204;28;20155;-84
2022/04/19 00:40:37;;;;;;;2.45;2.00;;;18.60;50.20;;;;;;5036158;28;20161;-84
2022/04/19 00:43:05;;;;;;;4.70;2.20;;;18.60;50.20;;;;;;5052094;28;20162;-85
2022/04/19 00:45:34;;;;;;;3.20;2.10;;;18.60;50.30;;;;;;5051458;28;20178;-84
2022/04/19 00:48:00;;;;;;;3.75;1.90;;;18.60;50.40;;;;;;5051278;28;20599;-84
2022/04/19 00:50:27;;;;;;;2.13;1.75;;;18.50;50.40;;;;;;5052021;28;20194;-84
2022/04/19 00:52:55;;;;;;;2.92;2.00;;;18.50;50.30;;;;;;5067467;28;20704;-85
2022/04/19 00:55:23;;;;;;;2.95;2.10;;;18.50;50.50;;;;;;5068035;28;20256;-84
2022/04/19 00:57:51;;;;;;;2.63;2.00;;;18.50;50.60;;;;;;5051266;28;20185;-84
2022/04/19 01:00:17;;;;;;;3.70;1.90;;;18.50;50.50;;;;;;5068177;28;20182;-85
2022/04/19 01:02:44;;;;;;;2.40;2.10;;;18.50;50.60;;;;;;5035450;28;20204;-85
2022/04/19 01:05:10;;;;;;;3.50;2.08;;;18.50;50.70;;;;;;5053235;28;20161;-86
2022/04/19 01:07:36;;;;;;;4.90;1.92;;;18.50;50.50;;;;;;5052146;28;20159;-85
2022/04/19 01:10:03;;;;;;;2.85;1.90;;;18.50;50.50;;;;;;5051882;28;20676;-84
2022/04/19 01:15:15;;;;;;;2.53;1.85;;;18.50;50.50;;;;;;5052215;28;20162;-85
2022/04/19 01:17:41;;;;;;;2.53;2.10;;;18.50;50.70;;;;;;5053078;28;20184;-84
2022/04/19 01:20:07;;;;;;;2.38;1.80;;;18.50;50.30;;;;;;5051742;28;20162;-85
2022/04/19 01:22:36;;;;;;;3.58;1.88;;;18.40;50.30;;;;;;5051941;28;20150;-85
2022/04/19 01:25:03;;;;;;;3.28;2.17;;;18.50;50.20;;;;;;5052915;28;20154;-84
2022/04/19 01:27:28;;;;;;;2.80;2.00;;;18.50;50.70;;;;;;5051816;28;20519;-84
2022/04/19 01:30:01;;;;;;;3.42;2.00;;;18.50;50.60;;;;;;5051833;28;20672;-84
2022/04/19 01:32:30;;;;;;;2.50;1.90;;;18.50;50.60;;;;;;5050998;28;20182;-86
2022/04/19 01:35:16;;;;;;;3.00;2.00;;;18.40;50.70;;;;;;5051169;28;20209;-85
2022/04/19 01:37:47;;;;;;;3.22;2.10;;;18.50;50.60;;;;;;5068226;28;20165;-85
2022/04/19 01:40:16;;;;;;;2.20;1.83;;;18.50;50.70;;;;;;5050969;28;20207;-86
2022/04/19 01:42:52;;;;;;;2.83;1.80;;;18.40;50.70;;;;;;5034363;28;20645;-85
2022/04/19 01:45:19;;;;;;;2.45;2.00;;;18.50;50.80;;;;;;5052124;28;20173;-85
2022/04/19 01:47:45;;;;;;;3.22;1.80;;;18.40;50.80;;;;;;5034826;28;20693;-85
2022/04/19 01:50:14;;;;;;;2.30;2.08;;;18.40;50.80;;;;;;5051513;28;20231;-85
2022/04/19 01:52:40;;;;;;;2.83;1.85;;;18.40;50.90;;;;;;5050598;28;20182;-86
2022/04/19 01:55:07;;;;;;;2.40;1.73;;;18.40;50.90;;;;;;5051425;28;20162;-85
2022/04/19 01:57:34;;;;;;;3.22;1.90;;;18.40;50.80;;;;;;5051527;28;20154;-84
2022/04/19 02:00:04;;;;;;;3.58;2.10;;;18.40;50.90;;;;;;5035431;28;20206;-84
2022/04/19 02:02:29;;;;;;;1.85;1.70;;;18.40;51.00;;;;;;5050495;28;20273;-85
2022/04/19 02:04:55;;;;;;;2.60;2.13;;;18.40;50.90;;;;;;5055061;28;20244;-85
2022/04/19 02:07:21;;;;;;;2.10;1.90;;;18.30;50.70;;;;;;5054862;28;20305;-84
2022/04/19 02:09:47;;;;;;;3.53;2.08;;;18.40;50.80;;;;;;5054978;28;20201;-84
2022/04/19 02:12:13;;;;;;;2.72;1.63;;;18.40;50.90;;;;;;5054982;28;20625;-85
2022/04/19 02:14:41;;;;;;;2.38;2.08;;;18.40;50.90;;;;;;5054753;28;20219;-85
2022/04/19 02:17:09;;;;;;;2.70;1.95;;;18.40;51.00;;;;;;5038537;28;20260;-85
2022/04/19 02:19:35;;;;;;;2.78;1.75;;;18.40;51.00;;;;;;5055129;28;20538;-85
2022/04/19 02:22:01;;;;;;;3.13;1.98;;;18.40;51.00;;;;;;5038512;28;20173;-86
2022/04/19 02:24:27;;;;;;;2.97;2.22;;;18.40;51.00;;;;;;5038361;28;20163;-84
2022/04/19 02:26:54;;;;;;;3.40;2.00;;;18.40;51.10;;;;;;5054920;28;20146;-86
2022/04/19 02:29:19;;;;;;;2.40;2.20;;;18.30;51.10;;;;;;5054606;28;20225;-85
2022/04/19 02:31:45;;;;;;;3.72;2.10;;;18.30;51.00;;;;;;5055006;28;20268;-85
2022/04/19 02:34:11;;;;;;;2.80;1.98;;;18.40;51.20;;;;;;5054921;28;20159;-84
2022/04/19 02:36:39;;;;;;;2.65;2.03;;;18.30;51.10;;;;;;5054617;28;20161;-86
2022/04/19 02:39:05;;;;;;;2.28;1.80;;;18.30;51.20;;;;;;5054910;28;20162;-84
2022/04/19 02:41:31;;;;;;;3.00;1.90;;;18.30;51.20;;;;;;5054718;28;20154;-85
2022/04/19 02:43:59;;;;;;;2.13;1.88;;;18.40;50.90;;;;;;5037762;28;20240;-85
2022/04/19 02:46:26;;;;;;;5.63;2.20;;;18.30;51.10;;;;;;5054770;28;20187;-84
2022/04/19 02:48:53;;;;;;;4.07;2.40;;;18.30;51.10;;;;;;5053128;28;20631;-85
2022/04/19 02:51:20;;;;;;;2.95;2.28;;;18.40;51.10;;;;;;5053697;28;20680;-85
2022/04/19 02:53:47;;;;;;;2.78;1.80;;;18.30;51.00;;;;;;5053684;28;20173;-84
2022/04/19 02:56:14;;;;;;;2.35;2.15;;;18.30;51.00;;;;;;5070136;28;20275;-84
2022/04/19 02:58:45;;;;;;;2.22;1.80;;;18.30;51.30;;;;;;5053182;28;20174;-85
2022/04/19 03:01:13;;;;;;;3.88;1.98;;;18.30;51.20;;;;;;5036896;28;20713;-85
2022/04/19 03:03:40;;;;;;;2.88;2.10;;;18.30;51.30;;;;;;5069982;28;20546;-84
2022/04/19 03:06:07;;;;;;;3.70;1.83;;;18.30;51.30;;;;;;5053662;28;20177;-84
2022/04/19 03:08:35;;;;;;;1.70;1.50;;;18.30;51.10;;;;;;5053467;28;20645;-84
2022/04/19 03:11:05;;;;;;;2.60;2.00;;;18.30;51.20;;;;;;5036757;28;20279;-85
2022/04/19 03:13:32;;;;;;;3.97;2.00;;;18.30;51.30;;;;;;5053831;28;20186;-83
2022/04/19 03:16:00;;;;;;;3.58;2.15;;;18.30;51.40;;;;;;5055231;28;20161;-83
2022/04/19 03:18:26;;;;;;;2.42;2.15;;;18.30;51.40;;;;;;5057162;28;20229;-84
2022/04/19 03:20:53;;;;;;;3.22;1.80;;;18.30;51.40;;;;;;5037529;28;20277;-85
2022/04/19 03:28:41;;;;;;;3.45;2.13;;;18.30;51.40;;;;;;5053806;28;20164;-84
2022/04/19 03:31:07;;;;;;;4.18;2.00;;;18.20;51.40;;;;;;5053430;28;20272;-85
2022/04/19 03:33:36;;;;;;;2.70;2.05;;;18.30;51.50;;;;;;5036937;28;20625;-84
2022/04/19 03:36:02;;;;;;;2.15;1.90;;;18.20;51.40;;;;;;5037180;28;20169;-85
2022/04/19 03:38:28;;;;;;;2.50;1.90;;;18.20;51.40;;;;;;5053687;28;20150;-84
2022/04/19 03:40:53;;;;;;;2.70;1.80;;;18.20;51.50;;;;;;5053362;28;20162;-85
2022/04/19 03:43:20;;;;;;;2.85;2.03;;;18.20;51.50;;;;;;5053308;28;20207;-85
2022/04/19 03:45:46;;;;;;;2.85;2.20;;;18.20;51.50;;;;;;5036558;28;20166;-85
2022/04/19 03:48:14;;;;;;;3.05;1.90;;;18.20;51.50;;;;;;5053313;28;20300;-85
2022/04/19 03:50:44;;;;;;;4.03;2.10;;;18.20;51.60;;;;;;5052416;28;20209;-84
2022/04/19 03:53:12;;;;;;;2.78;2.10;;;18.20;51.70;;;;;;5052405;28;20198;-83
2022/04/19 03:55:40;;;;;;;2.30;2.10;;;18.20;51.50;;;;;;5052479;28;20192;-85
2022/04/19 03:58:05;;;;;;;3.42;2.03;;;18.20;51.60;;;;;;5052305;28;20209;-85
2022/04/19 04:00:31;;;;;;;2.70;1.92;;;18.20;51.50;;;;;;5053014;28;20566;-85
2022/04/19 04:02:56;;;;;;;2.38;1.95;;;18.20;51.60;;;;;;5053325;28;20162;-85
2022/04/19 04:05:24;;;;;;;2.75;1.90;;;18.20;51.50;;;;;;5054069;28;20155;-84
2022/04/19 04:07:50;;;;;;;2.63;1.88;;;18.20;51.60;;;;;;5052719;28;20163;-86
2022/04/19 04:10:16;;;;;;;3.28;1.90;;;18.20;51.50;;;;;;5036740;28;20296;-84
2022/04/19 04:12:42;;;;;;;2.88;1.90;;;18.20;51.50;;;;;;5053083;28;20229;-84
2022/04/19 04:15:07;;;;;;;2.95;2.15;;;18.20;51.40;;;;;;5052722;28;20176;-84
2022/04/19 04:17:33;;;;;;;2.38;1.90;;;18.20;51.60;;;;;;5052929;28;20177;-85
2022/04/19 04:19:59;;;;;;;3.53;2.20;;;18.30;51.60;;;;;;5036441;28;20211;-84
2022/04/19 04:22:25;;;;;;;2.47;2.10;;;18.20;51.50;;;;;;5052665;28;20602;-85
2022/04/19 04:24:51;;;;;;;4.05;2.15;;;18.20;51.60;;;;;;5052540;28;20147;-84
2022/04/19 04:27:17;;;;;;;4.10;2.20;;;18.20;51.60;;;;;;5051762;28;20147;-85
2022/04/19 04:29:43;;;;;;;2.20;1.85;;;18.20;51.40;;;;;;5052384;28;20231;-85
2022/04/19 04:32:12;;;;;;;2.20;2.00;;;18.20;51.40;;;;;;5052421;28;20170;-85
2022/04/19 04:34:41;;;;;;;2.75;1.77;;;18.30;51.30;;;;;;5068798;28;20293;-84
2022/04/19 04:37:09;;;;;;;2.40;2.08;;;18.30;51.30;;;;;;5068145;28;20723;-83
2022/04/19 04:39:38;;;;;;;2.45;1.90;;;18.30;51.10;;;;;;5068264;28;20193;-84
2022/04/19 04:42:07;;;;;;;3.30;1.92;;;18.40;51.20;;;;;;5051555;28;20221;-86
2022/04/19 04:44:36;;;;;;;2.33;1.95;;;18.30;51.10;;;;;;5051331;28;20224;-85
2022/04/19 04:49:48;;;;;;;2.78;2.00;;;18.40;51.00;;;;;;5066015;28;20217;-84
2022/04/19 04:52:18;;;;;;;2.22;1.77;;;18.40;50.30;;;;;;5034644;28;20182;-84
2022/04/19 04:54:46;;;;;;;2.53;2.00;;;18.50;50.10;;;;;;5051369;28;20184;-84
2022/04/19 04:57:14;;;;;;;3.03;1.80;;;18.50;50.10;;;;;;5068287;28;20182;-84
2022/04/19 04:59:44;;;;;;;2.53;1.52;;;18.50;50.50;;;;;;5051304;28;20186;-85
2022/04/19 05:02:10;;;;;;;1.92;1.80;;;18.50;50.10;;;;;;5067862;28;20235;-86
2022/04/19 05:04:35;;;;;;;1.70;1.60;;;18.60;49.50;;;;;;5035557;28;20166;-84
2022/04/19 05:07:01;;;;;;;3.17;1.90;;;18.50;50.20;;;;;;5053198;28;20225;-84
2022/04/19 05:09:27;;;;;;;1.92;1.73;;;18.50;50.00;;;;;;5051722;28;20194;-84
2022/04/19 05:11:53;;;;;;;2.10;1.65;;;18.60;50.30;;;;;;5052193;28;20166;-85
2022/04/19 05:14:19;;;;;;;2.90;1.90;;;18.60;49.90;;;;;;5051905;28;20165;-85
2022/04/19 05:16:45;;;;;;;2.33;1.90;;;18.60;49.80;;;;;;5051934;28;20158;-85
2022/04/19 05:19:11;;;;;;;2.10;1.90;;;18.60;49.90;;;;;;5035161;28;20248;-84
2022/04/19 05:21:37;;;;;;;2.15;1.80;;;18.60;50.00;;;;;;5035290;28;20201;-84
2022/04/19 05:24:04;;;;;;;2.30;1.90;;;18.60;50.10;;;;;;5035326;28;20264;-85
2022/04/19 05:26:30;;;;;;;3.17;1.98;;;18.60;49.50;;;;;;5035510;28;20166;-84
2022/04/19 05:28:56;;;;;;;2.25;2.03;;;18.60;49.80;;;;;;5035064;28;20177;-85
2022/04/19 05:31:22;;;;;;;2.45;1.85;;;18.60;50.10;;;;;;5035051;28;20252;-84
2022/04/19 05:33:48;;;;;;;1.90;1.80;;;18.50;49.80;;;;;;5051719;28;20158;-85
2022/04/19 05:36:14;;;;;;;1.92;1.80;;;18.60;50.10;;;;;;5035053;28;20161;-85
2022/04/19 05:38:40;;;;;;;1.75;1.65;;;18.60;50.00;;;;;;5053387;28;20165;-84
2022/04/19 05:41:06;;;;;;;3.17;1.70;;;18.60;50.00;;;;;;5039034;28;20279;-85
2022/04/19 05:43:34;;;;;;;3.95;1.60;;;18.60;49.60;;;;;;5055705;28;20625;-84
2022/04/19 05:46:02;;;;;;;2.40;1.90;;;18.60;49.70;;;;;;5071403;28;20645;-85
2022/04/19 05:48:28;;;;;;;1.95;1.77;;;18.60;49.50;;;;;;5071422;28;20723;-85
2022/04/19 05:50:56;;;;;;;2.00;1.80;;;18.60;49.10;;;;;;5056686;28;20193;-85
2022/04/19 05:53:22;;;;;;;2.38;2.00;;;18.70;49.50;;;;;;5055082;28;20206;-85
2022/04/19 05:55:47;;;;;;;2.03;1.73;;;18.70;50.00;;;;;;5056681;28;20245;-86
2022/04/19 05:58:13;;;;;;;2.15;1.80;;;18.60;49.80;;;;;;5055907;28;20633;-85
2022/04/19 06:00:39;;;;;;;2.25;2.00;;;18.60;49.50;;;;;;5055785;28;20633;-86
2022/04/19 06:05:49;;;;;;;2.65;2.10;;;18.70;49.10;;;;;;5041137;28;20652;-85
2022/04/19 06:08:19;;;;;;;1.85;1.73;;;18.80;48.90;;;;;;5071366;28;20205;-85
2022/04/19 06:10:48;;;;;;;2.00;1.80;;;18.80;48.90;;;;;;5054789;28;20579;-85
2022/04/19 06:13:15;;;;;;;3.03;1.75;;;18.80;49.40;;;;;;5054340;28;20212;-85
2022/04/19 06:15:41;;;;;;;1.98;1.83;;;18.70;49.50;;;;;;5070835;28;20178;-85
2022/04/19 06:18:06;;;;;;;1.92;1.60;;;18.70;49.30;;;;;;5056181;28;20161;-84
2022/04/19 06:20:32;;;;;;;2.47;2.00;;;18.70;49.40;;;;;;5055641;28;20162;-84
2022/04/19 06:22:58;;;;;;;1.77;1.67;;;18.70;49.30;;;;;;5038419;28;20189;-84
2022/04/19 06:25:24;;;;;;;2.47;1.92;;;18.70;49.50;;;;;;5055031;28;20224;-86
2022/04/19 06:27:49;;;;;;;2.05;1.50;;;18.70;49.30;;;;;;5055025;28;20162;-85
2022/04/19 06:30:16;;;;;;;2.58;1.70;;;18.70;49.00;;;;;;5056694;28;20194;-85
2022/04/19 06:32:42;;;;;;;1.88;1.55;;;18.70;49.00;;;;;;5056450;28;20190;-85
2022/04/19 06:35:08;;;;;;;2.10;1.70;;;18.80;49.10;;;;;;5055305;28;20155;-87
2022/04/19 06:37:35;;;;;;;3.53;1.80;;;18.80;49.30;;;;;;5055144;28;20596;-86
2022/04/19 06:40:01;;;;;;;1.90;1.70;;;18.70;49.30;;;;;;5038159;28;20209;-86
2022/04/19 06:42:28;;;;;;;1.95;1.80;;;18.70;49.40;;;;;;5054418;28;20513;-85
2022/04/19 06:44:54;;;;;;;2.17;1.60;;;18.70;49.20;;;;;;5056127;28;20693;-85
2022/04/19 06:47:19;;;;;;;1.92;1.75;;;18.70;49.00;;;;;;5038743;28;20189;-86
2022/04/19 06:49:45;;;;;;;2.25;1.80;;;18.80;49.30;;;;;;5053453;28;20193;-86
2022/04/19 06:52:11;;;;;;;2.28;1.90;;;18.70;49.30;;;;;;5054208;28;20186;-85
2022/04/19 06:54:37;;;;;;;1.70;1.60;;;18.70;49.30;;;;;;5055410;28;20155;-85
2022/04/19 06:57:03;;;;;;;1.80;1.63;;;18.70;49.20;;;;;;5055221;28;20154;-86
2022/04/19 06:59:29;;;;;;;2.13;1.92;;;18.70;49.20;;;;;;5054465;28;20177;-86
2022/04/19 07:01:55;;;;;;;2.47;1.40;;;18.70;49.10;;;;;;5038622;28;20166;-87
2022/04/19 07:04:21;;;;;;;1.70;1.60;;;18.70;49.10;;;;;;5037411;28;20159;-86
2022/04/19 07:06:47;;;;;;;1.83;1.70;;;18.80;49.10;;;;;;5037676;28;20283;-87
2022/04/19 07:09:13;;;;;;;2.58;1.83;;;18.70;49.70;;;;;;5037418;28;20158;-86
2022/04/19 07:11:39;;;;;;;1.70;1.60;;;18.70;49.10;;;;;;5037601;28;20159;-85
2022/04/19 07:14:05;;;;;;;1.63;1.48;;;18.70;49.30;;;;;;5054185;28;20249;-86
2022/04/19 07:16:32;;;;;;;1.90;1.60;;;18.80;49.10;;;;;;5038368;28;20162;-85
2022/04/19 07:18:58;;;;;;;1.80;1.70;;;18.80;49.10;;;;;;5055334;28;20188;-85
2022/04/19 07:26:48;;;;;;;2.55;1.80;;;18.80;49.10;;;;;;5053919;28;20295;-85
2022/04/19 07:29:15;;;;;;;1.98;1.75;;;18.80;49.50;;;;;;5037038;28;20185;-87
2022/04/19 07:31:43;;;;;;;2.42;1.70;;;18.80;48.70;;;;;;5053856;28;20181;-87
2022/04/19 07:34:09;;;;;;;2.05;1.67;;;18.80;48.90;;;;;;5053526;28;20158;-86
2022/04/19 07:36:37;;;;;;;2.20;1.67;;;18.90;48.80;;;;;;5053564;28;20162;-84
2022/04/19 07:39:04;;;;;;;2.13;1.88;;;18.90;48.80;;;;;;5053715;28;20605;-85
2022/04/19 07:41:31;;;;;;;2.45;1.70;;;18.90;49.30;;;;;;5053954;28;20231;-84
2022/04/19 07:44:01;;;;;;;2.78;1.70;;;18.90;48.40;;;;;;5053793;28;20169;-86
2022/04/19 07:46:28;;;;;;;1.92;1.70;;;18.80;48.50;;;;;;5052980;28;20221;-85
2022/04/19 07:48:55;;;;;;;2.00;1.80;;;18.80;48.80;;;;;;5053169;28;20366;-85
2022/04/19 07:51:20;;;;;;;3.42;2.05;;;18.90;48.70;;;;;;5053115;28;20224;-86
2022/04/19 07:53:47;;;;;;;1.73;1.63;;;18.80;48.80;;;;;;5054449;28;20151;-86
2022/04/19 07:56:12;;;;;;;1.50;1.40;;;18.80;48.70;;;;;;5054371;28;20170;-86
2022/04/19 07:58:38;;;;;;;1.67;1.58;;;18.90;48.40;;;;;;5036606;28;20154;-86
2022/04/19 08:01:04;;;;;;;1.90;1.70;;;18.90;48.30;;;;;;5053048;28;20223;-86
2022/04/19 08:03:31;;;;;;;2.22;1.63;;;19.00;48.70;;;;;;5036505;28;20683;-85
2022/04/19 08:05:58;;;;;;;1.75;1.48;;;18.90;48.60;;;;;;5068469;28;20186;-87
2022/04/19 08:08:24;;;;;;;1.70;1.60;;;18.90;48.80;;;;;;5052039;28;20227;-86
2022/04/19 08:10:52;;;;;;;2.00;1.70;;;18.80;48.90;;;;;;5051846;28;20225;-86
2022/04/19 08:13:19;;;;;;;2.85;1.75;;;18.80;48.80;;;;;;5051840;28;20544;-85
2022/04/19 08:15:46;;;;;;;1.70;1.50;;;18.90;49.00;;;;;;5051988;28;20292;-86
2022/04/19 08:18:14;;;;;;;2.13;1.80;;;18.90;49.00;;;;;;5051995;28;20182;-85
2022/04/19 08:20:41;;;;;;;1.85;1.52;;;18.90;49.20;;;;;;5051976;28;20186;-85
2022/04/19 08:23:07;;;;;;;1.77;1.50;;;18.90;49.10;;;;;;5036146;28;20158;-85
2022/04/19 08:25:34;;;;;;;1.60;1.50;;;18.80;49.10;;;;;;5036331;28;20306;-84
2022/04/19 08:28:00;;;;;;;1.95;1.75;;;18.90;49.10;;;;;;5036733;28;20162;-84
2022/04/19 08:30:26;;;;;;;1.80;1.70;;;18.80;48.90;;;;;;5036161;28;20213;-84
2022/04/19 08:32:51;;;;;;;2.22;1.40;;;18.80;48.80;;;;;;5036173;28;20185;-83
2022/04/19 08:35:17;;;;;;;1.67;1.58;;;18.90;48.70;;;;;;5036103;28;20194;-84
2022/04/19 08:37:43;;;;;;;2.28;1.92;;;18.90;48.90;;;;;;5052582;28;20238;-86
2022/04/19 08:40:10;;;;;;;1.60;1.50;;;18.90;48.50;;;;;;5035957;28;20611;-85
2022/04/19 08:42:37;;;;;;;2.03;1.50;;;19.00;48.60;;;;;;5036072;28;20244;-85
2022/04/19 08:45:05;;;;;;;1.63;1.52;;;18.90;48.70;;;;;;5052641;28;20181;-84
2022/04/19 08:47:31;;;;;;;4.20;1.90;;;18.90;49.50;;;;;;5051537;28;20617;-85
2022/04/19 08:50:00;;;;;;;2.30;1.88;;;18.80;48.80;;;;;;5036548;28;20304;-85
2022/04/19 08:52:27;;;;;;;2.17;1.83;;;18.90;48.50;;;;;;5068321;28;20648;-85
2022/04/19 08:57:38;;;;;;;2.70;1.70;;;18.90;48.20;;;;;;5054965;28;20189;-85
2022/04/19 09:00:06;;;;;;;3.42;2.22;;;18.90;48.30;;;;;;5055937;28;20257;-86
2022/04/19 09:02:34;;;;;;;2.60;1.50;;;19.00;48.30;;;;;;5074755;28;20186;-86
2022/04/19 09:05:13;;;;;;;2.95;1.65;;;18.90;48.90;;;;;;5056191;28;20235;-85
2022/04/19 09:07:41;;;;;;;3.00;1.80;;;18.80;48.60;;;;;;5053565;28;20150;-85
2022/04/19 09:10:14;;;;;;;4.38;1.58;;;18.90;48.40;;;;;;5068565;28;20348;-85
2022/04/19 09:13:08;;;;;;;1.83;1.73;;;18.90;48.50;;;;;;5051340;28;20201;-84
2022/04/19 09:15:36;;;;;;;1.98;1.63;;;18.90;47.90;;;;;;5052549;28;20227;-84
2022/04/19 09:18:02;;;;;;;2.90;1.90;;;18.90;48.30;;;;;;5054944;28;20154;-84
2022/04/19 09:20:28;;;;;;;2.65;1.70;;;18.90;48.20;;;;;;5052818;28;20154;-86
2022/04/19 09:23:04;;;;;;;3.53;1.75;;;18.90;47.90;;;;;;5053903;28;20166;-84
2022/04/19 09:25:30;;;;;;;2.63;1.73;;;18.90;48.20;;;;;;5055318;28;20153;-85
2022/04/19 09:27:56;;;;;;;1.83;1.73;;;19.00;48.50;;;;;;5052951;28;20614;-84
2022/04/19 09:30:25;;;;;;;2.50;1.58;;;18.90;48.20;;;;;;5053288;28;20225;-86
2022/04/19 09:33:18;;;;;;;3.20;1.60;;;19.00;48.30;;;;;;5038660;28;20174;-85
2022/04/19 09:35:50;;;;;;;2.03;1.75;;;18.90;48.50;;;;;;5053262;28;20592;-85
2022/04/19 09:38:18;;;;;;;4.50;1.77;;;18.80;48.40;;;;;;5036995;28;20190;-85
2022/04/19 09:40:46;;;;;;;4.13;1.40;;;18.80;48.70;;;;;;5054103;28;20162;-85
2022/04/19 09:43:15;;;;;;;5.47;1.92;;;18.80;48.60;;;;;;5053975;28;20170;-85
2022/04/19 09:45:54;;;;;;;3.85;1.67;;;18.80;48.40;;;;;;5052704;28;20271;-83
2022/04/19 09:48:22;;;;;;;1.50;1.40;;;18.80;47.40;;;;;;5052349;28;20312;-86
2022/04/19 09:50:50;;;;;;;2.35;1.60;;;18.90;47.00;;;;;;5036856;28;20233;-84
2022/04/19 09:53:18;;;;;;;2.50;1.60;;;18.90;47.10;;;;;;5052374;28;20166;-86
2022/04/19 09:55:47;;;;;;;2.97;1.63;;;18.90;47.10;;;;;;5051736;28;20157;-86
2022/04/19 09:58:13;;;;;;;2.50;2.00;;;19.00;47.10;;;;;;5035223;28;20170;-85
2022/04/19 10:00:39;;;;;;;1.88;1.42;;;19.00;47.20;;;;;;5052623;28;20155;-85
2022/04/19 10:08:31;;;;;;;3.92;1.58;;;19.10;47.00;;;;;;5051646;28;20168;-85
2022/04/19 10:10:59;;;;;;;2.67;1.45;;;19.10;47.00;;;;;;5033999;28;20222;-85
2022/04/19 10:13:28;;;;;;;2.53;1.73;;;19.10;46.80;;;;;;5067282;28;20232;-85
2022/04/19 10:15:56;;;;;;;1.73;1.63;;;19.10;47.10;;;;;;5050606;28;20186;-86
2022/04/19 10:18:23;;;;;;;1.83;1.73;;;19.20;47.00;;;;;;5033976;28;20206;-86
2022/04/19 10:20:54;;;;;;;2.28;1.40;;;19.20;47.30;;;;;;5051526;28;20176;-86
2022/04/19 10:23:21;;;;;;;1.70;1.60;;;19.20;47.20;;;;;;5051904;28;20161;-85
2022/04/19 10:25:48;;;;;;;2.78;1.70;;;19.10;47.80;;;;;;5036975;28;20166;-85
2022/04/19 10:28:25;;;;;;;2.63;1.73;;;19.10;47.00;;;;;;5038207;28;20236;-85
2022/04/19 10:30:52;;;;;;;2.92;1.63;;;19.10;47.20;;;;;;5054653;28;20554;-85
2022/04/19 10:33:42;;;;;;;2.00;1.40;;;19.10;47.00;;;;;;5056114;28;20182;-85
2022/04/19 10:36:18;;;;;;;1.85;1.50;;;19.10;46.90;;;;;;5055708;28;20165;-86
2022/04/19 10:38:46;;;;;;;2.67;1.80;;;19.10;46.70;;;;;;5055965;28;20207;-85
2022/04/19 10:41:31;;;;;;;1.63;1.50;;;19.10;47.40;;;;;;5055991;28;20161;-86
2022/04/19 10:44:20;;;;;;;1.95;1.67;;;19.10;47.10;;;;;;5040501;28;20177;-85
2022/04/19 10:46:46;;;;;;;2.15;1.60;;;19.10;46.70;;;;;;5054727;28;20162;-86
2022/04/19 10:49:24;;;;;;;2.75;1.60;;;19.20;46.30;;;;;;5053949;28;20321;-86
2022/04/19 10:51:50;;;;;;;1.52;1.42;;;19.20;46.50;;;;;;5054280;28;20154;-84
2022/04/19 10:54:16;;;;;;;2.20;1.70;;;19.20;46.50;;;;;;5037771;28;20202;-85
2022/04/19 10:57:12;;;;;;;1.90;1.70;;;19.20;47.10;;;;;;5054562;28;20259;-86
2022/04/19 10:59:38;;;;;;;2.42;1.60;;;19.20;46.70;;;;;;5055308;28;20743;-86
2022/04/19 11:02:40;;;;;;;1.77;1.67;;;19.20;46.50;;;;;;5055262;28;20161;-86
2022/04/19 11:05:06;;;;;;;1.40;1.30;;;19.30;46.80;;;;;;5054566;28;20212;-86
2022/04/19 11:07:41;;;;;;;1.98;1.77;;;19.30;46.40;;;;;;5055422;28;20260;-86
2022/04/19 11:10:07;;;;;;;1.70;1.60;;;19.30;46.90;;;;;;5038258;28;20196;-86
2022/04/19 11:12:56;;;;;;;3.13;1.60;;;19.30;46.30;;;;;;5037692;28;20178;-86
2022/04/19 11:15:36;;;;;;;3.22;1.52;;;19.20;45.90;;;;;;5056024;28;20270;-86
2022/04/19 11:18:22;;;;;;;1.70;1.50;;;19.30;46.20;;;;;;5041186;28;20632;-85
2022/04/19 11:20:47;;;;;;;2.25;2.00;;;19.30;46.40;;;;;;5038951;28;20223;-85
2022/04/19 11:23:19;;;;;;;3.10;1.73;;;19.40;46.60;;;;;;5038832;28;20170;-85
2022/04/19 11:25:45;;;;;;;1.50;1.40;;;19.30;46.10;;;;;;5054160;28;20237;-85
2022/04/19 11:28:13;;;;;;;2.05;1.70;;;19.30;46.10;;;;;;5039619;28;20162;-84
2022/04/19 11:31:12;;;;;;;2.08;1.73;;;19.30;45.70;;;;;;5055143;28;20255;-84
2022/04/19 11:33:38;;;;;;;1.83;1.67;;;19.30;46.20;;;;;;5041871;28;20178;-84
2022/04/19 11:36:09;;;;;;;3.58;1.83;;;19.30;45.90;;;;;;5054891;28;20690;-85
2022/04/19 11:38:49;;;;;;;4.60;1.73;;;19.30;46.10;;;;;;5037500;28;20178;-87
2022/04/19 11:46:47;;;;;;;2.67;1.70;;;19.30;46.40;;;;;;5069290;28;20273;-86
2022/04/19 11:49:34;;;;;;;2.17;1.95;;;19.20;46.70;;;;;;5038442;28;20687;-85
2022/04/19 11:52:06;;;;;;;2.15;1.95;;;19.20;46.70;;;;;;5055008;28;20179;-85
2022/04/19 11:54:33;;;;;;;1.70;1.48;;;19.30;46.00;;;;;;5036710;28;20178;-85
2022/04/19 11:57:03;;;;;;;2.65;1.33;;;19.30;46.20;;;;;;5054428;28;20167;-85
2022/04/19 11:59:37;;;;;;;2.65;1.52;;;19.30;46.40;;;;;;5038262;28;20198;-89
2022/04/19 12:02:17;;;;;;;1.90;1.42;;;19.20;46.80;;;;;;5053424;28;20197;-85
2022/04/19 12:04:51;;;;;;;2.05;1.67;;;19.20;45.90;;;;;;5036489;28;20667;-88
2022/04/19 12:07:19;;;;;;;1.75;1.65;;;19.20;46.40;;;;;;5054322;28;20520;-85
2022/04/19 12:09:46;;;;;;;2.08;1.55;;;19.10;45.80;;;;;;5040138;28;20232;-86
2022/04/19 12:12:13;;;;;;;1.55;1.45;;;19.20;45.20;;;;;;5055809;28;20188;-85
2022/04/19 12:14:38;;;;;;;2.05;1.80;;;19.20;45.70;;;;;;5039770;28;20162;-85
2022/04/19 12:17:10;;;;;;;2.13;1.48;;;19.30;45.10;;;;;;5039211;28;20494;-86
2022/04/19 12:19:39;;;;;;;1.58;1.48;;;19.30;45.60;;;;;;5053521;28;20208;-86
2022/04/19 12:22:21;;;;;;;3.00;1.73;;;19.30;45.90;;;;;;5038462;28;20154;-87
2022/04/19 12:24:53;;;;;;;1.60;1.50;;;19.40;45.90;;;;;;5055125;28;20189;-86
2022/04/19 12:27:28;;;;;;;1.50;1.40;;;19.40;46.40;;;;;;5055272;28;20603;-86
2022/04/19 12:29:59;;;;;;;2.42;1.70;;;19.30;46.10;;;;;;5055179;28;20209;-85
2022/04/19 12:32:26;;;;;;;2.03;1.70;;;19.30;46.50;;;;;;5058749;28;20155;-87
2022/04/19 12:35:09;;;;;;;1.90;1.67;;;19.20;45.10;;;;;;5042728;28;20522;-86
2022/04/19 12:37:35;;;;;;;3.00;1.50;;;19.30;45.20;;;;;;5056595;28;20165;-88
2022/04/19 12:40:01;;;;;;;2.58;1.50;;;19.40;44.80;;;;;;5039147;28;20399;-87
2022/04/19 12:42:26;;;;;;;1.55;1.45;;;19.40;44.50;;;;;;5039654;28;20570;-86
2022/04/19 12:45:06;;;;;;;1.90;1.60;;;19.40;45.10;;;;;;5057922;28;20170;-86
2022/04/19 12:47:33;;;;;;;1.90;1.58;;;19.40;44.90;;;;;;5057697;28;20150;-86
2022/04/19 12:50:08;;;;;;;2.05;1.45;;;19.50;45.50;;;;;;5058145;28;20226;-86
2022/04/19 12:52:34;;;;;;;1.60;1.50;;;19.50;45.30;;;;;;5058350;28;20153;-86
2022/04/19 12:55:01;;;;;;;1.55;1.45;;;19.40;45.30;;;;;;5059786;28;20227;-87
2022/04/19 12:57:27;;;;;;;1.67;1.58;;;19.50;44.60;;;;;;5055546;28;20203;-88
2022/04/19 12:59:54;;;;;;;1.40;1.30;;;19.50;45.40;;;;;;5039034;28;20713;-86
2022/04/19 13:02:21;;;;;;;1.52;1.42;;;19.50;45.00;;;;;;5054750;28;20189;-87
2022/04/19 13:04:48;;;;;;;1.98;1.77;;;19.50;45.30;;;;;;5050918;28;20649;-86
2022/04/19 13:12:39;;;;;;;2.00;1.73;;;19.50;45.80;;;;;;5054015;28;20186;-88
2022/04/19 13:15:06;;;;;;;2.00;1.70;;;19.50;46.60;;;;;;5056692;28;20235;-87
2022/04/19 13:17:35;;;;;;;2.15;1.55;;;19.50;44.90;;;;;;5058896;28;20154;-86
2022/04/19 13:20:02;;;;;;;1.90;1.50;;;19.50;45.60;;;;;;5058434;28;20184;-87
2022/04/19 13:22:29;;;;;;;1.75;1.45;;;19.50;45.40;;;;;;5058309;28;20281;-87
2022/04/19 13:24:55;;;;;;;1.98;1.58;;;19.50;45.20;;;;;;5057771;28;20241;-87
2022/04/19 13:27:21;;;;;;;7.03;1.65;;;19.60;45.40;;;;;;5058677;28;20161;-87
2022/04/19 13:29:47;;;;;;;3.42;1.80;;;19.50;45.10;;;;;;5055205;28;20190;-87
2022/04/19 13:32:13;;;;;;;1.90;1.70;;;19.50;45.40;;;;;;5039894;28;20177;-87